createdAt,value
2017-08-08T00:00:39.921Z,5.30
2017-08-08T00:03:07.372Z,6.10
2017-08-08T00:05:35.025Z,6.70
2017-08-08T00:08:02.476Z,6.30
2017-08-08T00:10:29.919Z,7.10
2017-08-08T00:12:57.710Z,4.80
2017-08-08T00:15:25.159Z,6.27
2017-08-08T00:17:52.609Z,5.77
2017-08-08T00:20:20.089Z,5.37
2017-08-08T00:22:47.561Z,6.73
2017-08-08T00:25:15.025Z,6.10
2017-08-08T00:27:42.473Z,5.90
2017-08-08T00:30:09.949Z,6.63
2017-08-08T00:32:37.435Z,5.90
2017-08-08T00:35:04.913Z,6.23
2017-08-08T00:37:33.292Z,5.23
2017-08-08T00:40:00.801Z,5.70
2017-08-08T00:42:28.841Z,5.30
2017-08-08T00:44:56.304Z,5.93
2017-08-08T00:47:24.789Z,6.77
2017-08-08T00:49:52.249Z,5.87
2017-08-08T00:52:19.701Z,6.33
2017-08-08T00:54:47.142Z,7.27
2017-08-08T00:57:14.608Z,6.43
2017-08-08T00:59:42.060Z,7.17
2017-08-08T01:02:09.520Z,6.87
2017-08-08T01:04:36.966Z,5.90
2017-08-08T01:07:04.438Z,7.07
2017-08-08T01:09:31.901Z,5.57
2017-08-08T01:11:59.344Z,6.20
2017-08-08T01:14:26.817Z,7.37
2017-08-08T01:16:54.263Z,6.90
2017-08-08T01:19:21.741Z,7.60
2017-08-08T01:21:49.199Z,6.27
2017-08-08T01:24:16.632Z,5.10
2017-08-08T01:26:44.104Z,7.20
2017-08-08T01:29:11.552Z,6.50
2017-08-08T01:31:39.012Z,5.60
2017-08-08T01:34:06.466Z,6.40
2017-08-08T01:36:33.917Z,5.67
2017-08-08T01:39:01.379Z,5.90
2017-08-08T01:41:28.825Z,5.97
2017-08-08T01:43:56.376Z,6.10
2017-08-08T01:46:23.847Z,7.07
2017-08-08T01:48:51.289Z,5.70
2017-08-08T01:51:18.757Z,6.57
2017-08-08T01:53:46.208Z,6.63
2017-08-08T01:56:13.673Z,6.87
2017-08-08T01:58:41.120Z,7.47
2017-08-08T02:01:08.595Z,6.87
2017-08-08T02:03:36.045Z,6.50
2017-08-08T02:06:03.537Z,7.80
2017-08-08T02:08:30.980Z,6.10
2017-08-08T02:10:58.425Z,6.43
2017-08-08T02:13:26.004Z,6.50
2017-08-08T02:15:53.449Z,7.07
2017-08-08T02:18:20.893Z,6.30
2017-08-08T02:20:48.357Z,6.70
2017-08-08T02:23:15.802Z,7.00
2017-08-08T02:25:43.624Z,6.77
2017-08-08T02:28:11.073Z,7.10
2017-08-08T02:30:38.522Z,7.17
2017-08-08T02:33:06.012Z,7.47
2017-08-08T02:35:33.466Z,7.37
2017-08-08T02:38:00.930Z,7.03
2017-08-08T02:40:28.428Z,8.83
2017-08-08T02:42:55.898Z,7.70
2017-08-08T02:45:23.349Z,7.30
2017-08-08T02:47:50.997Z,7.50
2017-08-08T02:50:18.452Z,7.57
2017-08-08T02:52:45.893Z,8.00
2017-08-08T02:55:13.361Z,7.00
2017-08-08T02:57:41.208Z,6.53
2017-08-08T03:00:08.653Z,6.90
2017-08-08T03:02:36.101Z,8.10
2017-08-08T03:05:03.575Z,7.80
2017-08-08T03:07:31.044Z,9.33
2017-08-08T03:09:58.512Z,7.80
2017-08-08T03:12:25.953Z,7.33
2017-08-08T03:14:53.425Z,6.70
2017-08-08T03:17:20.897Z,6.67
2017-08-08T03:19:48.333Z,5.80
2017-08-08T03:22:15.795Z,5.30
2017-08-08T03:24:43.244Z,6.60
2017-08-08T03:27:10.716Z,7.23
2017-08-08T03:29:38.166Z,7.60
2017-08-08T03:32:05.644Z,7.50
2017-08-08T03:34:33.097Z,5.90
2017-08-08T03:37:00.569Z,6.73
2017-08-08T03:39:28.043Z,6.73
2017-08-08T03:41:55.497Z,6.90
2017-08-08T03:44:22.960Z,6.13
2017-08-08T03:46:50.441Z,4.90
2017-08-08T03:49:17.885Z,6.53
2017-08-08T03:51:45.344Z,6.00
2017-08-08T03:54:12.846Z,6.30
2017-08-08T03:56:40.297Z,8.50
2017-08-08T03:59:07.773Z,6.00
2017-08-08T04:01:35.257Z,7.43
2017-08-08T04:04:02.705Z,8.13
2017-08-08T04:06:30.144Z,7.33
2017-08-08T04:08:57.622Z,5.67
2017-08-08T04:11:25.068Z,6.40
2017-08-08T04:13:52.569Z,7.30
2017-08-08T04:16:20.060Z,6.53
2017-08-08T04:18:47.523Z,6.83
2017-08-08T04:21:14.999Z,6.90
2017-08-08T04:23:42.444Z,7.47
2017-08-08T04:26:09.914Z,7.57
2017-08-08T04:28:37.357Z,6.00
2017-08-08T04:31:04.833Z,6.17
2017-08-08T04:33:32.300Z,7.20
2017-08-08T04:35:59.752Z,7.20
2017-08-08T04:38:27.197Z,7.03
2017-08-08T04:40:54.673Z,6.33
2017-08-08T04:43:22.167Z,5.90
2017-08-08T04:45:49.609Z,7.00
2017-08-08T04:48:17.061Z,7.00
2017-08-08T04:50:44.537Z,8.40
2017-08-08T04:53:12.022Z,8.50
2017-08-08T04:55:39.477Z,8.60
2017-08-08T04:58:06.926Z,7.90
2017-08-08T05:00:34.392Z,7.37
2017-08-08T05:03:01.836Z,6.20
2017-08-08T05:05:29.446Z,6.60
2017-08-08T05:07:56.889Z,6.90
2017-08-08T05:10:24.333Z,6.60
2017-08-08T05:12:51.798Z,5.93
2017-08-08T05:15:19.264Z,7.20
2017-08-08T05:17:46.709Z,6.30
2017-08-08T05:20:14.168Z,7.17
2017-08-08T05:22:41.617Z,7.43
2017-08-08T05:25:09.085Z,5.73
2017-08-08T05:27:36.545Z,6.13
2017-08-08T05:30:04.001Z,6.50
2017-08-08T05:32:31.462Z,5.33
2017-08-08T05:34:58.932Z,6.57
2017-08-08T05:37:26.409Z,4.40
2017-08-08T05:39:53.854Z,6.80
2017-08-08T05:42:21.316Z,5.10
2017-08-08T05:44:48.768Z,5.43
2017-08-08T05:47:16.255Z,19.90
2017-08-08T05:49:43.715Z,7.67
2017-08-08T05:52:11.162Z,7.67
2017-08-08T05:54:38.637Z,10.37
2017-08-08T05:57:06.084Z,4.90
2017-08-08T05:59:33.559Z,5.90
2017-08-08T06:02:01.009Z,5.87
2017-08-08T06:04:28.773Z,5.20
2017-08-08T06:06:56.223Z,6.30
2017-08-08T06:09:23.679Z,6.13
2017-08-08T06:11:51.143Z,5.87
2017-08-08T06:14:18.619Z,6.00
2017-08-08T06:16:46.060Z,4.93
2017-08-08T06:19:13.513Z,3.97
2017-08-08T06:21:40.981Z,4.93
2017-08-08T06:24:08.428Z,5.27
2017-08-08T06:26:35.888Z,4.83
2017-08-08T06:29:03.330Z,5.57
2017-08-08T06:31:30.777Z,4.97
2017-08-08T06:33:58.238Z,4.17
2017-08-08T06:36:26.264Z,5.17
2017-08-08T06:38:53.739Z,4.50
2017-08-08T06:41:21.180Z,5.57
2017-08-08T06:43:48.630Z,4.73
2017-08-08T06:46:16.100Z,5.43
2017-08-08T06:48:43.551Z,6.00
2017-08-08T06:51:11.018Z,4.30
2017-08-08T06:53:38.477Z,5.07
2017-08-08T06:56:05.938Z,4.30
2017-08-08T06:58:33.406Z,4.40
2017-08-08T07:01:00.857Z,4.93
2017-08-08T07:03:28.301Z,3.97
2017-08-08T07:05:55.769Z,4.20
2017-08-08T07:08:23.224Z,4.20
2017-08-08T07:10:50.682Z,4.50
2017-08-08T07:13:18.177Z,5.50
2017-08-08T07:15:45.620Z,5.27
2017-08-08T07:18:13.066Z,4.13
2017-08-08T07:20:40.556Z,4.50
2017-08-08T07:23:08.032Z,3.70
2017-08-08T07:25:35.474Z,4.60
2017-08-08T07:28:02.959Z,4.60
2017-08-08T07:30:30.430Z,4.13
2017-08-08T07:32:57.892Z,4.70
2017-08-08T07:35:25.383Z,4.50
2017-08-08T07:37:52.829Z,3.17
2017-08-08T07:40:20.282Z,5.03
2017-08-08T07:42:47.747Z,4.20
2017-08-08T07:45:15.190Z,4.43
2017-08-08T07:47:42.629Z,4.27
2017-08-08T07:50:10.110Z,3.63
2017-08-08T07:52:37.564Z,4.00
2017-08-08T07:55:05.053Z,4.00
2017-08-08T07:57:32.501Z,3.57
2017-08-08T07:59:59.969Z,3.03
2017-08-08T08:02:27.409Z,3.13
2017-08-08T08:04:54.888Z,3.73
2017-08-08T08:07:22.331Z,3.37
2017-08-08T08:09:49.777Z,5.07
2017-08-08T08:12:17.250Z,3.50
2017-08-08T08:14:44.689Z,3.23
2017-08-08T08:17:12.162Z,3.03
2017-08-08T08:19:39.608Z,4.30
2017-08-08T08:22:07.095Z,4.17
2017-08-08T08:24:34.550Z,3.40
2017-08-08T08:27:01.994Z,3.00
2017-08-08T08:29:29.472Z,2.93
2017-08-08T08:31:56.917Z,3.50
2017-08-08T08:34:24.352Z,3.23
2017-08-08T08:36:51.829Z,3.70
2017-08-08T08:39:19.281Z,3.63
2017-08-08T08:41:46.750Z,3.43
2017-08-08T08:44:14.234Z,3.00
2017-08-08T08:46:41.677Z,3.37
2017-08-08T08:49:09.120Z,3.20
2017-08-08T08:51:36.585Z,3.20
2017-08-08T08:54:04.034Z,3.23
2017-08-08T08:56:31.506Z,3.23
2017-08-08T08:58:58.949Z,3.13
2017-08-08T09:01:26.406Z,3.00
2017-08-08T09:03:53.869Z,3.33
2017-08-08T09:06:21.309Z,2.97
2017-08-08T09:08:48.757Z,3.13
2017-08-08T09:11:16.224Z,3.00
2017-08-08T09:13:43.667Z,2.37
2017-08-08T09:16:11.112Z,3.00
2017-08-08T09:18:38.578Z,2.33
2017-08-08T09:21:06.916Z,2.70
2017-08-08T09:23:34.388Z,3.40
2017-08-08T09:26:01.833Z,2.90
2017-08-08T09:28:29.290Z,9.53
2017-08-08T09:30:56.754Z,3.03
2017-08-08T09:33:24.193Z,2.30
2017-08-08T09:35:51.668Z,3.00
2017-08-08T09:38:19.121Z,2.83
2017-08-08T09:40:46.565Z,2.97
2017-08-08T09:43:14.026Z,2.30
2017-08-08T09:45:41.516Z,2.40
2017-08-08T09:48:08.968Z,2.83
2017-08-08T09:50:36.440Z,1.87
2017-08-08T09:53:03.912Z,2.73
2017-08-08T09:55:31.394Z,2.93
2017-08-08T09:57:58.821Z,2.83
2017-08-08T10:00:26.285Z,2.93
2017-08-08T10:02:53.729Z,2.80
2017-08-08T10:05:21.172Z,2.93
2017-08-08T10:07:48.631Z,2.83
2017-08-08T10:10:16.098Z,3.03
2017-08-08T10:12:43.559Z,2.10
2017-08-08T10:15:11.006Z,2.73
2017-08-08T10:17:38.701Z,2.80
2017-08-08T10:20:06.146Z,2.47
2017-08-08T10:22:33.592Z,2.60
2017-08-08T10:25:01.365Z,2.53
2017-08-08T10:27:28.814Z,2.43
2017-08-08T10:29:56.268Z,2.03
2017-08-08T10:32:24.050Z,2.43
2017-08-08T10:34:51.496Z,2.93
2017-08-08T10:37:18.941Z,2.40
2017-08-08T10:39:46.409Z,2.90
2017-08-08T10:42:13.877Z,2.77
2017-08-08T10:44:41.325Z,2.00
2017-08-08T10:47:08.793Z,2.60
2017-08-08T10:49:36.233Z,2.63
2017-08-08T10:52:04.037Z,2.80
2017-08-08T10:54:31.477Z,2.67
2017-08-08T10:56:58.925Z,2.33
2017-08-08T10:59:26.412Z,2.10
2017-08-08T11:01:53.857Z,2.17
2017-08-08T11:04:21.327Z,2.70
2017-08-08T11:06:48.790Z,2.87
2017-08-08T11:09:16.265Z,2.57
2017-08-08T11:11:43.709Z,2.50
2017-08-08T11:14:11.174Z,2.77
2017-08-08T11:16:38.641Z,2.43
2017-08-08T11:19:06.085Z,2.93
2017-08-08T11:21:33.545Z,3.03
2017-08-08T11:24:01.022Z,2.53
2017-08-08T11:26:28.470Z,2.90
2017-08-08T11:28:55.937Z,2.50
2017-08-08T11:31:23.400Z,2.90
2017-08-08T11:33:50.852Z,2.20
2017-08-08T11:36:18.525Z,2.30
2017-08-08T11:38:45.971Z,3.00
2017-08-08T11:41:13.422Z,2.33
2017-08-08T11:43:40.913Z,2.50
2017-08-08T11:46:08.361Z,2.40
2017-08-08T11:48:35.805Z,2.13
2017-08-08T11:51:03.267Z,1.83
2017-08-08T11:53:30.710Z,2.00
2017-08-08T11:55:58.197Z,2.30
2017-08-08T11:58:25.646Z,2.30
2017-08-08T12:00:53.094Z,2.30
2017-08-08T12:03:20.562Z,2.13
2017-08-08T12:05:48.005Z,2.20
2017-08-08T12:08:15.620Z,2.80
2017-08-08T12:10:43.150Z,2.27
2017-08-08T12:13:10.601Z,2.03
2017-08-08T12:15:38.069Z,2.70
2017-08-08T12:18:05.509Z,2.50
2017-08-08T12:20:32.958Z,2.03
2017-08-08T12:23:00.424Z,2.07
2017-08-08T12:25:27.906Z,2.90
2017-08-08T12:27:55.373Z,2.00
2017-08-08T12:30:22.818Z,1.70
2017-08-08T12:32:50.296Z,1.90
2017-08-08T12:35:17.749Z,2.10
2017-08-08T12:37:45.199Z,2.10
2017-08-08T12:40:12.673Z,2.10
2017-08-08T12:42:40.125Z,2.10
2017-08-08T12:45:07.613Z,1.70
2017-08-08T12:47:35.057Z,2.17
2017-08-08T12:50:02.501Z,2.00
2017-08-08T12:52:30.190Z,2.10
2017-08-08T12:54:57.628Z,2.03
2017-08-08T12:57:25.068Z,2.50
2017-08-08T12:59:52.537Z,2.13
2017-08-08T13:02:20.030Z,1.90
2017-08-08T13:04:47.476Z,1.50
2017-08-08T13:07:15.152Z,2.50
2017-08-08T13:09:42.598Z,1.90
2017-08-08T13:12:10.057Z,2.00
2017-08-08T13:14:37.591Z,2.13
2017-08-08T13:17:05.038Z,1.50
2017-08-08T13:19:32.484Z,2.13
2017-08-08T13:21:59.948Z,2.03
2017-08-08T13:24:27.425Z,2.23
2017-08-08T13:26:54.894Z,2.10
2017-08-08T13:29:22.350Z,2.20
2017-08-08T13:31:49.824Z,1.90
2017-08-08T13:34:17.297Z,2.20
2017-08-08T13:36:44.750Z,2.27
2017-08-08T13:39:12.197Z,2.10
2017-08-08T13:41:39.659Z,1.97
2017-08-08T13:44:07.137Z,2.13
2017-08-08T13:46:34.579Z,1.53
2017-08-08T13:49:02.042Z,1.57
2017-08-08T13:51:29.506Z,1.90
2017-08-08T13:53:56.957Z,1.80
2017-08-08T13:56:24.422Z,1.80
2017-08-08T13:58:51.877Z,2.07
2017-08-08T14:01:19.330Z,2.17
2017-08-08T14:03:46.897Z,1.93
2017-08-08T14:06:14.351Z,1.53
2017-08-08T14:08:41.818Z,1.70
2017-08-08T14:11:09.297Z,1.90
2017-08-08T14:13:36.736Z,2.20
2017-08-08T14:16:04.176Z,1.90
2017-08-08T14:18:31.647Z,2.40
2017-08-08T14:20:59.119Z,1.87
2017-08-08T14:23:26.569Z,2.03
2017-08-08T14:25:54.953Z,2.20
2017-08-08T14:28:22.421Z,2.17
2017-08-08T14:30:49.886Z,2.17
2017-08-08T14:33:17.360Z,2.00
2017-08-08T14:35:44.834Z,2.37
2017-08-08T14:38:12.328Z,3.00
2017-08-08T14:40:39.770Z,2.40
2017-08-08T14:43:07.221Z,2.07
2017-08-08T14:45:34.701Z,1.87
2017-08-08T14:48:02.144Z,2.47
2017-08-08T14:50:29.589Z,2.00
2017-08-08T14:52:57.063Z,1.87
2017-08-08T14:55:24.510Z,2.30
2017-08-08T14:57:51.957Z,2.50
2017-08-08T15:00:19.442Z,2.33
2017-08-08T15:02:46.889Z,2.60
2017-08-08T15:05:14.341Z,2.23
2017-08-08T15:07:41.825Z,2.30
2017-08-08T15:10:09.274Z,2.10
2017-08-08T15:12:36.717Z,2.20
2017-08-08T15:15:04.187Z,2.17
2017-08-08T15:17:31.656Z,2.47
2017-08-08T15:19:59.106Z,2.57
2017-08-08T15:22:26.574Z,2.23
2017-08-08T15:24:54.042Z,2.13
2017-08-08T15:27:21.484Z,1.97
2017-08-08T15:29:48.928Z,2.80
2017-08-08T15:32:16.629Z,3.40
2017-08-08T15:34:44.078Z,2.63
2017-08-08T15:37:11.600Z,2.50
2017-08-08T15:39:39.061Z,2.13
2017-08-08T15:42:06.517Z,2.13
2017-08-08T15:44:33.964Z,2.13
2017-08-08T15:47:01.433Z,2.20
2017-08-08T15:49:28.894Z,2.80
2017-08-08T15:51:56.366Z,2.30
2017-08-08T15:54:23.833Z,2.93
2017-08-08T15:56:51.397Z,3.17
2017-08-08T15:59:18.856Z,2.57
2017-08-08T16:01:46.349Z,2.97
2017-08-08T16:04:13.813Z,3.03
2017-08-08T16:06:41.306Z,3.63
2017-08-08T16:09:08.779Z,2.80
2017-08-08T16:11:36.224Z,3.43
2017-08-08T16:14:03.677Z,3.77
2017-08-08T16:16:31.149Z,3.03
2017-08-08T16:18:58.610Z,2.97
2017-08-08T16:21:27.400Z,4.00
2017-08-08T16:23:54.900Z,2.80
2017-08-08T16:26:22.364Z,2.90
2017-08-08T16:28:49.830Z,2.80
2017-08-08T16:31:18.014Z,2.60
2017-08-08T16:33:45.457Z,2.97
2017-08-08T16:36:12.901Z,3.00
2017-08-08T16:38:41.030Z,2.57
2017-08-08T16:41:09.424Z,2.97
2017-08-08T16:43:36.865Z,2.40
2017-08-08T16:46:04.368Z,3.03
2017-08-08T16:48:31.833Z,2.73
2017-08-08T16:50:59.497Z,3.90
2017-08-08T16:53:26.957Z,2.77
2017-08-08T16:55:54.413Z,3.80
2017-08-08T16:58:21.877Z,3.40
2017-08-08T17:00:49.332Z,3.30
2017-08-08T17:03:16.803Z,3.23
2017-08-08T17:05:44.274Z,3.37
2017-08-08T17:08:11.717Z,2.93
2017-08-08T17:10:39.168Z,4.50
2017-08-08T17:13:06.638Z,3.63
2017-08-08T17:15:34.082Z,3.90
2017-08-08T17:18:01.556Z,4.43
2017-08-08T17:20:28.997Z,3.40
2017-08-08T17:22:56.433Z,3.50
2017-08-08T17:25:23.934Z,2.90
2017-08-08T17:27:51.376Z,3.90
2017-08-08T17:30:18.826Z,4.63
2017-08-08T17:32:46.294Z,3.20
2017-08-08T17:35:14.233Z,4.03
2017-08-08T17:37:41.705Z,4.00
2017-08-08T17:40:09.200Z,3.93
2017-08-08T17:42:36.649Z,3.67
2017-08-08T17:45:04.123Z,4.30
2017-08-08T17:47:31.560Z,4.00
2017-08-08T17:49:59.041Z,3.63
2017-08-08T17:52:26.506Z,4.60
2017-08-08T17:54:53.957Z,7.50
2017-08-08T17:57:21.435Z,5.80
2017-08-08T17:59:48.908Z,5.83
2017-08-08T18:02:16.346Z,4.00
2017-08-08T18:04:43.817Z,4.90
2017-08-08T18:07:11.285Z,4.30
2017-08-08T18:09:38.811Z,5.30
2017-08-08T18:12:06.500Z,4.30
2017-08-08T18:14:33.950Z,4.53
2017-08-08T18:17:01.424Z,4.73
2017-08-08T18:19:28.893Z,4.50
2017-08-08T18:21:56.339Z,4.97
2017-08-08T18:24:23.796Z,4.33
2017-08-08T18:26:51.268Z,9.60
2017-08-08T18:29:18.717Z,15.57
2017-08-08T18:31:46.163Z,5.77
2017-08-08T18:34:13.880Z,4.03
2017-08-08T18:36:41.326Z,6.57
2017-08-08T18:39:08.770Z,5.87
2017-08-08T18:41:36.250Z,6.77
2017-08-08T18:44:03.724Z,5.63
2017-08-08T18:46:32.400Z,6.63
2017-08-08T18:48:59.853Z,11.10
2017-08-08T18:51:28.204Z,6.00
2017-08-08T18:53:55.663Z,5.80
2017-08-08T18:56:23.110Z,5.37
2017-08-08T18:58:50.714Z,7.67
2017-08-08T19:01:19.005Z,8.20
2017-08-08T19:03:46.489Z,8.97
2017-08-08T19:06:14.023Z,5.30
2017-08-08T19:08:41.481Z,7.57
2017-08-08T19:11:10.089Z,6.87
2017-08-08T19:13:37.551Z,10.83
2017-08-08T19:16:05.001Z,27.90
2017-08-08T19:18:32.473Z,11.40
2017-08-08T19:20:59.964Z,9.40
2017-08-08T19:23:28.975Z,7.90
2017-08-08T19:25:56.668Z,6.70
2017-08-08T19:28:24.476Z,6.70
2017-08-08T19:30:51.931Z,7.97
2017-08-08T19:33:20.021Z,18.67
2017-08-08T19:35:47.670Z,13.13
2017-08-08T19:38:15.138Z,10.93
2017-08-08T19:40:42.612Z,8.17
2017-08-08T19:43:10.389Z,8.70
2017-08-08T19:45:39.397Z,8.70
2017-08-08T19:48:07.464Z,7.40
2017-08-08T19:50:35.282Z,7.80
2017-08-08T19:53:02.763Z,8.27
2017-08-08T19:55:30.989Z,7.73
2017-08-08T19:57:58.455Z,7.30
2017-08-08T20:00:25.905Z,7.40
2017-08-08T20:02:53.384Z,8.40
2017-08-08T20:05:21.363Z,8.20
2017-08-08T20:07:48.820Z,8.33
2017-08-08T20:10:16.316Z,9.00
2017-08-08T20:12:43.807Z,12.23
2017-08-08T20:15:12.230Z,8.90
2017-08-08T20:17:40.378Z,7.90
2017-08-08T20:20:08.173Z,7.87
2017-08-08T20:22:35.622Z,7.70
2017-08-08T20:25:03.065Z,7.30
2017-08-08T20:27:30.541Z,14.47
2017-08-08T20:29:58.001Z,8.10
2017-08-08T20:32:25.481Z,8.67
2017-08-08T20:34:52.957Z,9.13
2017-08-08T20:37:20.432Z,7.80
2017-08-08T20:39:47.877Z,8.40
2017-08-08T20:42:15.362Z,7.60
2017-08-08T20:44:42.813Z,7.67
2017-08-08T20:47:10.258Z,7.10
2017-08-08T20:49:37.738Z,9.43
2017-08-08T20:52:05.245Z,9.13
2017-08-08T20:54:33.565Z,8.30
2017-08-08T20:57:01.022Z,8.43
2017-08-08T20:59:28.488Z,6.13
2017-08-08T21:01:55.933Z,8.93
2017-08-08T21:04:23.396Z,8.10
2017-08-08T21:06:51.153Z,6.77
2017-08-08T21:09:18.601Z,6.10
2017-08-08T21:11:46.045Z,7.20
2017-08-08T21:14:13.517Z,6.83
2017-08-08T21:16:41.125Z,7.10
2017-08-08T21:19:08.572Z,5.20
2017-08-08T21:21:36.020Z,5.97
2017-08-08T21:24:03.519Z,5.47
2017-08-08T21:26:31.009Z,4.23
2017-08-08T21:28:58.458Z,4.20
2017-08-08T21:31:25.913Z,3.50
2017-08-08T21:33:53.376Z,3.53
2017-08-08T21:36:20.839Z,3.43
2017-08-08T21:38:48.295Z,3.33
2017-08-08T21:41:15.771Z,2.70
2017-08-08T21:43:43.346Z,2.50
2017-08-08T21:46:10.800Z,2.83
2017-08-08T21:48:38.249Z,3.60
2017-08-08T21:51:06.429Z,3.73
2017-08-08T21:53:33.922Z,2.00
2017-08-08T21:56:01.572Z,2.20
2017-08-08T21:58:29.016Z,3.57
2017-08-08T22:00:56.460Z,2.80
2017-08-08T22:03:23.938Z,1.97
2017-08-08T22:05:51.377Z,1.37
2017-08-08T22:08:18.819Z,1.90
2017-08-08T22:10:46.289Z,1.87
2017-08-08T22:13:14.107Z,1.33
2017-08-08T22:15:41.553Z,1.03
2017-08-08T22:18:08.997Z,1.63
2017-08-08T22:20:36.469Z,1.30
2017-08-08T22:23:03.918Z,1.23
2017-08-08T22:25:31.396Z,1.80
2017-08-08T22:27:58.837Z,0.90
2017-08-08T22:30:26.300Z,1.80
2017-08-08T22:32:53.764Z,1.27
2017-08-08T22:35:21.206Z,1.30
2017-08-08T22:37:48.784Z,1.30
2017-08-08T22:40:16.225Z,1.27
2017-08-08T22:42:43.669Z,1.30
2017-08-08T22:45:11.168Z,1.40
2017-08-08T22:47:38.614Z,1.10
2017-08-08T22:50:06.085Z,0.90
2017-08-08T22:52:33.537Z,1.40
2017-08-08T22:55:01.006Z,0.90
2017-08-08T22:57:28.482Z,2.50
2017-08-08T22:59:55.928Z,1.20
2017-08-08T23:02:23.371Z,1.50
2017-08-08T23:04:51.074Z,1.20
2017-08-08T23:07:18.533Z,1.13
2017-08-08T23:09:45.977Z,1.20
2017-08-08T23:12:13.585Z,1.17
2017-08-08T23:14:41.026Z,1.13
2017-08-08T23:17:08.474Z,0.90
2017-08-08T23:19:35.941Z,1.00
2017-08-08T23:22:03.393Z,0.93
2017-08-08T23:24:30.833Z,0.83
2017-08-08T23:26:58.312Z,0.80
2017-08-08T23:29:25.761Z,1.97
2017-08-08T23:31:53.207Z,1.53
2017-08-08T23:34:20.681Z,1.37
2017-08-08T23:36:48.132Z,1.27
2017-08-08T23:39:15.611Z,0.80
2017-08-08T23:41:43.052Z,1.00
2017-08-08T23:44:10.522Z,0.70
2017-08-08T23:46:37.964Z,1.67
2017-08-08T23:49:05.408Z,1.87
2017-08-08T23:51:32.886Z,2.13
2017-08-08T23:54:00.337Z,1.30
2017-08-08T23:56:28.771Z,1.63
2017-08-08T23:58:56.241Z,1.57
